EDT,Max TemperatureF,Mean TemperatureF,Min TemperatureF,Max Dew PointF,MeanDew PointF,Min DewpointF,Max Humidity, Mean Humidity, Min Humidity, Max Sea Level PressureIn, Mean Sea Level PressureIn, Min Sea Level PressureIn, Max VisibilityMiles, Mean VisibilityMiles, Min VisibilityMiles, Max Wind SpeedMPH, Mean Wind SpeedMPH, Max Gust SpeedMPH,PrecipitationIn, CloudCover, Events, WindDirDegrees
2013-7-1,81,74,66,63,62,60,81,68,54,30.06,29.90,29.79,10,10,2,14,5,23,0.17,6,Rain,164
2013-7-2,79,74,69,65,62,60,78,70,62,30.21,30.06,29.91,10,10,8,14,6,22,0.05,6,Rain-Thunderstorm,157
2013-7-3,73,70,67,66,63,61,84,79,73,30.31,30.22,30.09,10,9,2,12,4,20,0.66,7,Rain,150
2013-7-4,81,74,67,65,64,62,81,70,58,30.32,30.23,30.15,10,10,10,21,7,37,0.08,5,Rain,157
2013-7-5,84,76,68,65,63,60,78,65,51,30.33,30.22,30.13,10,10,6,13,6,24,0.05,5,Rain,168
2013-7-6,83,76,68,66,63,59,78,62,46,30.31,30.18,30.10,10,10,10,14,6,21,0.02,4,Rain,158
2013-7-7,81,74,67,66,64,61,84,71,58,30.29,30.18,30.09,10,8,0,20,4,28,0.23,6,Fog-Rain-Thunderstorm,238
2013-7-8,83,74,64,64,62,58,87,67,47,30.31,30.20,30.13,10,8,1,13,6,,0.00,4,,266
2013-7-9,86,78,69,66,63,61,78,62,45,30.16,30.12,30.06,10,10,10,9,4,,T,2,,260
2013-7-10,83,76,69,70,66,61,84,71,58,30.17,30.04,29.94,10,10,5,13,4,22,0.08,5,Rain-Thunderstorm,254
2013-7-11,80,74,67,65,64,62,87,74,60,30.08,29.97,29.89,10,10,10,8,4,14,T,6,,289
2013-7-12,79,71,63,64,60,57,93,77,60,30.16,30.06,29.91,10,7,0,12,3,17,0.36,7,Fog-Rain-Thunderstorm,49
2013-7-13,77,70,62,64,61,57,84,74,64,30.25,30.14,30.04,10,9,1,14,5,21,T,7,,104
2013-7-14,82,76,69,66,64,60,84,68,51,30.41,30.28,30.14,10,8,3,16,7,30,0.13,6,Rain,118
2013-7-15,87,79,70,64,63,59,79,61,43,30.47,30.33,30.26,10,10,10,10,3,17,0.00,3,,148
2013-7-16,90,79,67,66,64,62,87,67,46,30.45,30.30,30.26,10,10,10,12,2,15,0.00,1,,341
2013-7-17,90,80,70,72,67,65,84,68,51,30.43,30.30,30.19,10,10,5,14,4,17,0.10,4,Rain-Thunderstorm,274
2013-7-18,89,79,68,72,67,64,90,73,55,30.33,30.24,30.10,10,6,0,10,3,13,0.00,4,Fog-Thunderstorm,242
2013-7-19,88,79,69,70,68,64,84,70,55,30.22,30.09,29.99,10,8,2,18,5,24,0.16,2,Rain-Thunderstorm,256
2013-7-20,86,78,70,68,65,62,84,68,51,30.13,29.99,29.91,10,10,10,12,6,18,0.01,3,Thunderstorm,251
2013-7-21,84,77,69,68,66,64,84,71,58,30.12,29.98,29.93,10,10,4,14,4,18,0.06,3,Rain,265
2013-7-22,84,76,68,68,65,63,84,70,55,30.07,29.94,29.81,10,9,1,15,6,20,0.39,6,Rain,253
2013-7-23,82,76,69,65,64,61,84,68,51,29.96,29.87,29.78,10,9,2,17,8,22,0.08,6,Rain,280
2013-7-24,80,72,64,66,62,59,90,71,52,30.02,29.90,29.77,10,9,2,13,5,24,0.33,6,Rain-Thunderstorm,304
2013-7-25,78,69,59,59,56,52,90,65,39,30.08,30.00,29.91,10,7,0,10,3,14,0.00,4,Fog,306
2013-7-26,84,70,56,62,57,51,86,63,40,30.09,30.05,30.01,10,10,5,12,3,16,0.00,1,,202
2013-7-27,73,70,66,64,62,57,84,76,68,30.12,30.00,29.91,10,8,1,13,5,21,0.78,7,Rain-Thunderstorm,157
2013-7-28,78,70,61,61,60,56,87,71,54,30.13,29.99,29.90,10,10,7,13,4,21,0.01,5,Rain,270
2013-7-29,75,65,55,57,53,48,87,64,41,30.24,30.17,30.06,10,7,0,12,4,16,0.00,3,Fog,265
2013-7-30,80,69,57,60,55,50,80,63,45,30.25,30.20,30.16,10,10,10,7,2,14,0.00,1,,275
2013-7-31,67,65,63,61,59,56,87,80,73,30.21,30.11,30.00,10,8,3,9,2,13,0.37,8,Rain,190